createdAt,value
2018-12-07T00:00:22.715Z,89.01
2018-12-07T00:02:58.036Z,88.75
2018-12-07T00:05:32.072Z,89.36
2018-12-07T00:08:06.184Z,90.15
2018-12-07T00:10:40.605Z,90.19
2018-12-07T00:13:11.440Z,91.04
2018-12-07T00:15:42.286Z,90.27
2018-12-07T00:18:19.149Z,90.23
2018-12-07T00:20:57.173Z,90.37
2018-12-07T00:23:29.196Z,90.45
2018-12-07T00:26:00.338Z,89.68
2018-12-07T00:28:32.274Z,89.66
2018-12-07T00:31:03.173Z,89.57
2018-12-07T00:33:34.313Z,89.70
2018-12-07T00:36:05.198Z,89.40
2018-12-07T00:38:36.221Z,89.28
2018-12-07T00:41:08.506Z,89.37
2018-12-07T00:43:41.393Z,88.61
2018-12-07T00:46:15.428Z,88.77
2018-12-07T00:48:46.706Z,89.49
2018-12-07T00:51:17.473Z,89.23
2018-12-07T00:53:48.355Z,89.31
2018-12-07T00:56:20.549Z,89.10
2018-12-07T00:58:51.582Z,89.61
2018-12-07T01:01:22.744Z,89.56
2018-12-07T01:03:53.908Z,89.01
2018-12-07T01:06:24.988Z,89.12
2018-12-07T01:08:57.423Z,89.81
2018-12-07T01:11:28.629Z,89.26
2018-12-07T01:13:59.652Z,89.39
2018-12-07T01:16:30.630Z,89.48
2018-12-07T01:19:03.139Z,90.38
2018-12-07T01:21:34.079Z,90.31
2018-12-07T01:24:05.017Z,90.54
2018-12-07T01:26:35.932Z,90.44
2018-12-07T01:29:07.034Z,91.30
2018-12-07T01:31:38.300Z,91.20
2018-12-07T01:34:09.126Z,91.65
2018-12-07T01:36:39.930Z,90.14
2018-12-07T01:39:10.710Z,90.17
2018-12-07T01:41:41.753Z,90.25
2018-12-07T01:44:12.537Z,90.44
2018-12-07T01:46:48.912Z,89.34
2018-12-07T01:49:26.861Z,89.68
2018-12-07T01:52:11.254Z,89.19
2018-12-07T01:54:42.457Z,88.79
2018-12-07T01:57:14.953Z,88.63
2018-12-07T01:59:46.003Z,88.18
2018-12-07T02:02:16.889Z,88.35
2018-12-07T02:04:53.580Z,88.55
2018-12-07T02:07:36.810Z,89.05
2018-12-07T02:10:13.346Z,89.22
2018-12-07T02:12:46.263Z,89.61
2018-12-07T02:15:23.406Z,89.05
2018-12-07T02:18:00.537Z,88.50
2018-12-07T02:20:36.556Z,88.30
2018-12-07T02:23:13.073Z,87.41
2018-12-07T02:25:49.155Z,87.57
2018-12-07T02:28:24.398Z,87.87
2018-12-07T02:30:58.597Z,88.15
2018-12-07T02:33:33.857Z,87.31
2018-12-07T02:36:09.226Z,87.50
2018-12-07T02:38:43.853Z,88.42
2018-12-07T02:41:17.998Z,88.89
2018-12-07T02:43:54.157Z,88.50
2018-12-07T02:46:25.808Z,88.09
2018-12-07T02:48:58.862Z,88.39
2018-12-07T02:51:35.275Z,88.87
2018-12-07T02:54:11.231Z,89.22
2018-12-07T02:56:47.482Z,88.91
2018-12-07T02:59:22.868Z,88.55
2018-12-07T03:02:01.120Z,89.48
2018-12-07T03:04:38.047Z,90.12
2018-12-07T03:07:19.540Z,89.73
2018-12-07T03:09:54.276Z,89.74
2018-12-07T03:12:25.552Z,89.45
2018-12-07T03:14:56.418Z,89.54
2018-12-07T03:17:33.141Z,89.29
2018-12-07T03:20:04.632Z,89.17
2018-12-07T03:25:32.562Z,89.47
2018-12-07T03:28:04.724Z,90.18
2018-12-07T03:30:38.776Z,89.76
2018-12-07T03:33:13.040Z,89.50
2018-12-07T03:35:47.582Z,89.65
2018-12-07T03:38:24.050Z,90.39
2018-12-07T03:40:55.229Z,89.87
2018-12-07T03:43:26.410Z,89.89
2018-12-07T03:46:01.182Z,90.03
2018-12-07T03:48:41.549Z,90.20
2018-12-07T03:51:12.371Z,89.61
2018-12-07T03:53:43.194Z,89.57
2018-12-07T03:56:14.185Z,89.66
2018-12-07T04:01:41.220Z,89.48
2018-12-07T04:04:12.127Z,89.73
2018-12-07T04:06:46.233Z,89.95
2018-12-07T04:09:18.249Z,89.25
2018-12-07T04:11:54.822Z,89.69
2018-12-07T04:14:28.895Z,89.71
2018-12-07T04:17:00.124Z,88.57
2018-12-07T04:19:31.307Z,89.29
2018-12-07T04:22:04.019Z,89.10
2018-12-07T04:24:35.145Z,89.34
2018-12-07T04:27:06.153Z,89.64
2018-12-07T04:29:37.156Z,89.45
2018-12-07T04:32:08.701Z,89.36
2018-12-07T04:34:40.533Z,89.51
2018-12-07T04:37:11.574Z,90.59
2018-12-07T04:39:42.540Z,90.75
2018-12-07T04:42:13.453Z,89.68
2018-12-07T04:44:44.405Z,89.13
2018-12-07T04:47:15.421Z,88.98
2018-12-07T04:49:46.495Z,89.53
2018-12-07T04:55:24.156Z,87.79
2018-12-07T04:57:55.088Z,87.95
2018-12-07T05:00:26.176Z,87.92
2018-12-07T05:02:57.309Z,88.22
2018-12-07T05:05:29.831Z,88.43
2018-12-07T05:08:01.093Z,89.35
2018-12-07T05:10:33.574Z,89.16
2018-12-07T05:13:04.540Z,89.14
2018-12-07T05:15:35.647Z,88.54
2018-12-07T05:18:06.651Z,89.17
2018-12-07T05:20:38.706Z,87.73
2018-12-07T05:23:09.649Z,88.15
2018-12-07T05:25:40.525Z,88.40
2018-12-07T05:28:11.429Z,87.80
2018-12-07T05:30:42.274Z,86.73
2018-12-07T05:33:13.508Z,86.72
2018-12-07T05:35:44.415Z,86.65
2018-12-07T05:38:15.843Z,86.63
2018-12-07T05:43:13.273Z,86.98
2018-12-07T05:45:44.217Z,86.32
2018-12-07T05:48:31.213Z,86.09
2018-12-07T05:51:03.492Z,85.36
2018-12-07T05:53:34.972Z,85.56
2018-12-07T05:56:05.948Z,85.96
2018-12-07T05:58:37.066Z,86.24
2018-12-07T06:01:25.358Z,86.70
2018-12-07T06:03:57.447Z,87.58
2018-12-07T06:06:28.603Z,87.84
2018-12-07T06:09:04.319Z,88.03
2018-12-07T06:11:38.119Z,88.62
2018-12-07T06:14:12.558Z,87.82
2018-12-07T06:16:44.608Z,87.79
2018-12-07T06:19:21.276Z,88.00
2018-12-07T06:21:52.176Z,87.31
2018-12-07T06:24:26.951Z,87.52
2018-12-07T06:26:59.648Z,88.18
2018-12-07T06:29:34.808Z,88.70
2018-12-07T06:32:07.639Z,89.29
2018-12-07T06:34:41.299Z,87.98
2018-12-07T06:37:15.868Z,87.72
2018-12-07T06:39:52.276Z,86.06
2018-12-07T06:42:27.897Z,86.79
2018-12-07T06:45:02.672Z,87.37
2018-12-07T06:47:39.444Z,87.55
2018-12-07T06:50:15.566Z,87.89
2018-12-07T06:52:50.442Z,88.65
2018-12-07T06:55:24.676Z,88.56
2018-12-07T06:58:00.855Z,87.25
2018-12-07T07:00:37.635Z,86.26
2018-12-07T07:03:09.645Z,87.75
2018-12-07T07:05:46.098Z,87.49
2018-12-07T07:08:18.624Z,87.71
2018-12-07T07:10:52.834Z,87.48
2018-12-07T07:13:29.345Z,86.94
2018-12-07T07:16:00.296Z,86.85
2018-12-07T07:18:34.788Z,87.19
2018-12-07T07:21:09.745Z,89.27
2018-12-07T07:23:45.895Z,89.33
2018-12-07T07:26:21.042Z,88.21
2018-12-07T07:28:52.729Z,88.82
2018-12-07T07:31:29.076Z,89.46
2018-12-07T07:34:06.314Z,90.00
2018-12-07T07:36:38.346Z,90.00
2018-12-07T07:39:09.612Z,89.94
2018-12-07T07:41:43.238Z,90.45
2018-12-07T07:44:14.037Z,89.63
2018-12-07T07:46:45.120Z,88.62
2018-12-07T07:49:22.042Z,87.73
2018-12-07T07:51:58.881Z,88.42
2018-12-07T07:54:34.989Z,88.04
2018-12-07T07:57:06.660Z,86.28
2018-12-07T07:59:37.655Z,84.82
2018-12-07T08:02:09.721Z,84.80
2018-12-07T08:04:46.357Z,85.28
2018-12-07T08:07:20.787Z,83.75
2018-12-07T08:09:55.314Z,83.30
2018-12-07T08:12:31.611Z,82.02
2018-12-07T08:15:06.273Z,82.76
2018-12-07T08:17:45.668Z,82.57
2018-12-07T08:20:19.140Z,81.00
2018-12-07T08:22:53.449Z,80.14
2018-12-07T08:25:27.543Z,79.18
2018-12-07T08:28:02.050Z,78.26
2018-12-07T08:30:36.713Z,77.65
2018-12-07T08:33:12.439Z,77.88
2018-12-07T08:35:47.742Z,77.16
2018-12-07T08:38:22.846Z,75.76
2018-12-07T08:41:02.947Z,75.49
2018-12-07T08:46:43.486Z,73.27
2018-12-07T08:49:18.049Z,72.87
2018-12-07T08:51:50.060Z,72.31
2018-12-07T08:54:22.397Z,71.36
2018-12-07T08:56:56.570Z,71.16
2018-12-07T08:59:31.767Z,71.76
2018-12-07T09:02:04.401Z,72.10
2018-12-07T09:04:39.227Z,71.26
2018-12-07T09:07:13.352Z,71.54
2018-12-07T09:09:47.561Z,70.20
2018-12-07T09:12:22.551Z,70.02
2018-12-07T09:14:54.976Z,70.18
2018-12-07T09:17:26.140Z,70.04
2018-12-07T09:19:57.994Z,70.13
2018-12-07T09:22:30.322Z,71.06
2018-12-07T09:25:02.277Z,70.50
2018-12-07T09:27:36.120Z,70.07
2018-12-07T09:30:07.918Z,70.62
2018-12-07T09:32:39.032Z,70.38
2018-12-07T09:35:13.681Z,71.27
2018-12-07T09:37:47.771Z,70.61
2018-12-07T09:40:25.155Z,70.14
2018-12-07T09:42:58.899Z,70.60
2018-12-07T09:45:36.868Z,71.13
2018-12-07T09:48:13.171Z,70.70
2018-12-07T09:50:49.704Z,70.63
2018-12-07T09:53:26.753Z,71.58
2018-12-07T09:55:58.682Z,71.78
2018-12-07T09:58:32.730Z,70.90
2018-12-07T10:01:27.509Z,70.43
2018-12-07T10:04:16.685Z,69.90
2018-12-07T10:07:03.216Z,70.43
2018-12-07T10:09:47.947Z,70.92
2018-12-07T10:15:41.887Z,70.54
2018-12-07T10:18:35.430Z,70.59
2018-12-07T10:32:33.783Z,70.02
2018-12-07T10:35:24.337Z,69.66
2018-12-07T10:38:13.354Z,69.54
2018-12-07T10:41:03.557Z,69.91
2018-12-07T10:43:49.110Z,69.91
2018-12-07T10:46:45.558Z,69.23
2018-12-07T10:49:18.113Z,69.30
2018-12-07T10:51:52.344Z,68.64
2018-12-07T10:57:16.921Z,68.21
2018-12-07T10:59:57.634Z,67.82
2018-12-07T11:02:38.160Z,67.92
2018-12-07T11:05:36.593Z,67.59
2018-12-07T11:08:29.697Z,67.03
2018-12-07T11:11:13.729Z,67.15
2018-12-07T11:20:52.803Z,67.21
2018-12-07T11:23:30.239Z,68.13
2018-12-07T11:26:11.918Z,67.58
2018-12-07T11:28:54.249Z,67.78
2018-12-07T11:31:32.156Z,67.13
2018-12-07T11:34:11.087Z,67.86
2018-12-07T11:36:47.031Z,67.94
2018-12-07T11:39:24.206Z,66.69
2018-12-07T11:42:00.794Z,67.24
2018-12-07T11:44:36.582Z,67.31
2018-12-07T11:47:12.889Z,67.88
2018-12-07T11:49:46.974Z,67.82
2018-12-07T11:52:21.017Z,67.61
2018-12-07T11:54:55.345Z,68.28
2018-12-07T11:57:29.875Z,67.67
2018-12-07T12:00:05.504Z,67.74
2018-12-07T12:02:37.491Z,67.37
2018-12-07T12:05:30.008Z,68.11
2018-12-07T12:08:08.097Z,68.37
2018-12-07T12:10:40.506Z,67.93
2018-12-07T12:13:12.772Z,69.01
2018-12-07T12:15:45.151Z,67.75
2018-12-07T12:18:19.968Z,68.39
2018-12-07T12:20:52.551Z,68.06
2018-12-07T12:23:23.663Z,68.39
2018-12-07T12:25:54.815Z,68.63
2018-12-07T12:28:31.257Z,69.20
2018-12-07T12:31:10.419Z,68.75
2018-12-07T12:33:41.371Z,68.46
2018-12-07T12:36:16.991Z,68.79
2018-12-07T12:38:45.527Z,68.43
2018-12-07T12:41:16.567Z,69.59
2018-12-07T12:43:48.424Z,69.07
2018-12-07T12:46:19.352Z,68.84
2018-12-07T12:48:50.268Z,68.80
2018-12-07T12:51:24.719Z,69.80
2018-12-07T12:54:01.064Z,70.07
2018-12-07T12:56:41.206Z,69.79
2018-12-07T12:59:17.804Z,69.44
2018-12-07T13:01:55.877Z,69.32
2018-12-07T13:04:30.101Z,69.32
2018-12-07T13:07:05.978Z,69.35
2018-12-07T13:09:42.016Z,71.57
2018-12-07T13:13:06.471Z,72.51
2018-12-07T13:15:47.739Z,72.50
2018-12-07T13:21:30.502Z,75.23
2018-12-07T13:24:15.388Z,77.44
2018-12-07T13:26:50.753Z,79.87
2018-12-07T13:29:41.302Z,82.04
2018-12-07T13:32:21.384Z,82.61
2018-12-07T13:35:00.443Z,79.57
2018-12-07T13:40:48.726Z,79.43
2018-12-07T13:43:25.547Z,81.60
2018-12-07T13:48:51.757Z,78.42
2018-12-07T13:51:42.975Z,78.67
2018-12-07T13:54:32.848Z,80.65
2018-12-07T14:00:09.340Z,80.76
2018-12-07T14:02:43.466Z,79.18
2018-12-07T14:05:22.019Z,76.96
2018-12-07T14:17:23.204Z,74.69
2018-12-07T14:22:54.626Z,75.15
2018-12-07T14:25:26.000Z,73.15
2018-12-07T14:28:12.482Z,71.69
2018-12-07T14:30:58.123Z,70.12
2018-12-07T14:33:29.363Z,71.76
2018-12-07T14:36:02.795Z,71.81
2018-12-07T14:38:49.508Z,70.02
2018-12-07T14:41:27.374Z,69.84
2018-12-07T14:44:07.724Z,69.28
2018-12-07T14:46:51.382Z,69.15
2018-12-07T14:49:27.242Z,70.08
2018-12-07T14:52:19.723Z,69.87
2018-12-07T14:54:52.157Z,70.35
2018-12-07T14:57:24.419Z,68.55
2018-12-07T14:59:58.104Z,69.15
2018-12-07T15:02:39.244Z,68.53
2018-12-07T15:11:19.747Z,67.70
2018-12-07T15:13:50.919Z,67.91
2018-12-07T15:16:24.581Z,67.70
2018-12-07T15:18:59.722Z,67.86
2018-12-07T15:21:31.361Z,68.34
2018-12-07T15:27:11.101Z,66.89
2018-12-07T15:32:45.646Z,66.28
2018-12-07T15:35:26.696Z,66.51
2018-12-07T15:38:22.790Z,66.27
2018-12-07T15:41:56.818Z,67.05
2018-12-07T15:54:51.295Z,67.20
2018-12-07T15:57:33.375Z,67.00
2018-12-07T16:00:12.925Z,67.61
2018-12-07T16:02:51.461Z,67.31
2018-12-07T16:05:29.640Z,67.99
2018-12-07T16:11:05.762Z,67.89
2018-12-07T16:19:40.129Z,67.73
2018-12-07T16:22:22.984Z,67.55
2018-12-07T16:24:56.810Z,66.96
2018-12-07T16:27:28.469Z,67.26
2018-12-07T16:30:01.307Z,68.27
2018-12-07T16:32:33.826Z,66.96
2018-12-07T16:35:05.240Z,66.90
2018-12-07T16:37:37.170Z,67.27
2018-12-07T16:40:11.070Z,66.83
2018-12-07T16:42:42.841Z,67.13
2018-12-07T16:45:14.150Z,66.95
2018-12-07T16:47:46.477Z,66.31
2018-12-07T16:50:18.182Z,66.42
2018-12-07T16:52:49.687Z,67.60
2018-12-07T16:55:20.891Z,67.26
2018-12-07T16:57:53.230Z,66.25
2018-12-07T17:00:24.714Z,66.61
2018-12-07T17:02:55.841Z,66.24
2018-12-07T17:05:32.456Z,66.96
2018-12-07T17:08:09.022Z,67.04
2018-12-07T17:10:41.200Z,66.72
2018-12-07T17:13:17.739Z,66.82
2018-12-07T17:15:54.461Z,66.66
2018-12-07T17:18:31.544Z,66.74
2018-12-07T17:21:02.706Z,65.80
2018-12-07T17:23:37.936Z,66.41
2018-12-07T17:26:10.073Z,66.25
2018-12-07T17:28:43.587Z,66.64
2018-12-07T17:31:18.282Z,65.97
2018-12-07T17:33:53.402Z,66.44
2018-12-07T17:36:27.836Z,65.99
2018-12-07T17:39:06.561Z,65.56
2018-12-07T17:41:41.449Z,66.45
2018-12-07T17:44:17.522Z,65.55
2018-12-07T17:46:50.542Z,65.76
2018-12-07T17:49:25.047Z,66.11
2018-12-07T17:51:56.233Z,65.90
2018-12-07T17:54:31.030Z,66.17
2018-12-07T17:57:13.497Z,66.30
2018-12-07T17:59:50.179Z,65.53
2018-12-07T18:02:25.350Z,65.92
2018-12-07T18:05:01.395Z,66.80
2018-12-07T18:07:36.422Z,67.52
2018-12-07T18:10:11.241Z,67.12
2018-12-07T18:12:48.019Z,67.83
2018-12-07T18:15:20.664Z,67.94
2018-12-07T18:17:57.797Z,68.12
2018-12-07T18:20:32.152Z,67.99
2018-12-07T18:23:03.354Z,67.98
2018-12-07T18:25:34.829Z,68.97
2018-12-07T18:28:06.065Z,68.11
2018-12-07T18:30:40.762Z,68.11
2018-12-07T18:33:15.550Z,69.07
2018-12-07T18:36:01.572Z,68.26
2018-12-07T18:38:38.089Z,69.01
2018-12-07T18:41:11.456Z,68.99
2018-12-07T18:43:46.247Z,69.02
2018-12-07T18:46:23.462Z,69.29
2018-12-07T18:48:57.888Z,69.86
2018-12-07T18:51:38.632Z,69.89
2018-12-07T18:54:10.323Z,70.34
2018-12-07T18:56:41.896Z,71.62
2018-12-07T18:59:13.016Z,71.13
2018-12-07T19:01:55.977Z,72.10
2018-12-07T19:04:30.487Z,72.81
2018-12-07T19:07:03.394Z,73.44
2018-12-07T19:09:40.388Z,73.48
2018-12-07T19:12:24.358Z,73.90
2018-12-07T19:14:56.134Z,73.56
2018-12-07T19:17:27.761Z,73.50
2018-12-07T19:20:03.178Z,73.80
2018-12-07T19:22:38.253Z,74.24
2018-12-07T19:25:12.514Z,74.63
2018-12-07T19:27:45.772Z,75.16
2018-12-07T19:30:16.947Z,75.50
2018-12-07T19:32:51.344Z,75.67
2018-12-07T19:35:22.458Z,76.13
2018-12-07T19:37:54.760Z,75.59
2018-12-07T19:40:27.487Z,76.09
2018-12-07T19:43:00.286Z,76.35
2018-12-07T19:45:31.538Z,76.37
2018-12-07T19:48:02.851Z,76.34
2018-12-07T19:50:34.512Z,76.15
2018-12-07T19:53:05.633Z,76.11
2018-12-07T19:55:36.967Z,75.85
2018-12-07T19:58:08.677Z,77.35
2018-12-07T20:00:47.959Z,80.03
2018-12-07T20:03:18.973Z,81.62
2018-12-07T20:05:50.282Z,83.00
2018-12-07T20:08:21.979Z,84.45
2018-12-07T20:10:56.794Z,84.25
2018-12-07T20:13:28.328Z,84.16
2018-12-07T20:16:02.924Z,84.53
2018-12-07T20:18:34.707Z,84.73
2018-12-07T20:21:06.381Z,84.91
2018-12-07T20:23:37.965Z,86.02
2018-12-07T20:26:08.901Z,85.76
2018-12-07T20:28:40.276Z,87.58
2018-12-07T20:31:11.361Z,89.48
2018-12-07T20:33:43.399Z,88.67
2018-12-07T20:36:14.617Z,87.43
2018-12-07T20:38:45.893Z,89.71
2018-12-07T20:41:21.246Z,88.66
2018-12-07T20:43:53.914Z,88.71
2018-12-07T20:46:26.874Z,85.45
2018-12-07T20:49:03.714Z,85.06
2018-12-07T20:51:40.407Z,84.47
2018-12-07T20:54:12.025Z,84.35
2018-12-07T20:56:43.003Z,84.50
2018-12-07T20:59:14.487Z,84.17
2018-12-07T21:01:51.657Z,84.17
2018-12-07T21:04:32.052Z,82.99
2018-12-07T21:08:14.639Z,82.53
2018-12-07T21:11:50.877Z,83.01
2018-12-07T21:14:32.442Z,81.40
2018-12-07T21:17:18.420Z,82.92
2018-12-07T21:20:28.952Z,82.23
2018-12-07T21:23:03.356Z,81.92
2018-12-07T21:25:36.712Z,80.81
2018-12-07T21:28:08.829Z,80.10
2018-12-07T21:31:01.392Z,80.34
2018-12-07T21:33:49.444Z,80.03
2018-12-07T21:36:35.721Z,80.54
2018-12-07T21:39:11.337Z,80.01
2018-12-07T21:41:42.236Z,82.03
2018-12-07T21:44:13.404Z,81.35
2018-12-07T21:46:45.086Z,81.65
2018-12-07T21:49:16.379Z,80.65
2018-12-07T21:52:05.966Z,80.44
2018-12-07T21:54:37.404Z,80.20
2018-12-07T21:57:08.789Z,80.24
2018-12-07T21:59:40.283Z,81.11
2018-12-07T22:02:11.329Z,80.00
2018-12-07T22:04:42.452Z,78.52
2018-12-07T22:07:13.506Z,77.63
2018-12-07T22:09:44.454Z,78.39
2018-12-07T22:12:19.519Z,76.82
2018-12-07T22:14:54.058Z,77.72
2018-12-07T22:17:25.597Z,75.61
2018-12-07T22:19:57.414Z,75.31
2018-12-07T22:22:28.711Z,76.54
2018-12-07T22:25:00.055Z,76.73
2018-12-07T22:27:31.414Z,76.47
2018-12-07T22:30:04.243Z,76.33
2018-12-07T22:32:39.128Z,75.69
2018-12-07T22:35:22.085Z,75.93
2018-12-07T22:37:53.317Z,75.63
2018-12-07T22:40:24.821Z,75.85
2018-12-07T22:42:56.098Z,77.37
2018-12-07T22:45:27.523Z,75.80
2018-12-07T22:48:09.263Z,74.94
2018-12-07T22:50:56.052Z,74.87
2018-12-07T22:53:32.874Z,73.68
2018-12-07T22:56:06.199Z,73.36
2018-12-07T22:58:39.619Z,74.64
2018-12-07T23:01:15.699Z,73.24
2018-12-07T23:03:48.442Z,74.12
2018-12-07T23:06:22.575Z,72.92
2018-12-07T23:08:58.249Z,73.66
2018-12-07T23:11:34.842Z,72.30
2018-12-07T23:14:05.880Z,72.37
2018-12-07T23:16:48.265Z,72.03
2018-12-07T23:19:22.484Z,73.45
2018-12-07T23:21:56.536Z,72.77
2018-12-07T23:24:30.709Z,71.85
2018-12-07T23:27:04.739Z,71.37
2018-12-07T23:29:40.770Z,72.32
2018-12-07T23:32:15.559Z,70.69
2018-12-07T23:34:49.765Z,70.81
2018-12-07T23:37:21.830Z,71.03
2018-12-07T23:39:56.786Z,69.08
2018-12-07T23:42:28.828Z,69.33
2018-12-07T23:45:05.049Z,70.62
2018-12-07T23:47:38.022Z,70.28
2018-12-07T23:50:10.598Z,71.58
2018-12-07T23:52:45.482Z,70.42
2018-12-07T23:55:21.631Z,70.00
2018-12-07T23:57:55.682Z,69.82
